Time;durP1;ratioP1;P1;durP2;ratioP2;P2;SDS_P1;SDS_P2;PMS_P1;PMS_P2;Temp;Humidity;BMP_temperature;BMP_pressure;BME280_temperature;BME280_humidity;BME280_pressure;Samples;Min_cycle;Max_cycle;Signal;HPM_P1;HPM_P2
2020/12/05 00:02:16;;;;;;;39.05;16.15;;;;;;;12.49;62.61;154395.75;1767663;81;21319;-59
2020/12/05 00:08:26;;;;;;;45.30;18.10;;;;;;;12.72;62.37;154457.48;1767201;80;21125;-59
2020/12/05 00:10:59;;;;;;;42.17;16.90;;;;;;;12.80;62.64;154479.78;1767399;81;21366;-59
2020/12/05 00:13:31;;;;;;;44.18;17.30;;;;;;;12.87;62.28;154496.86;1767601;81;21327;-60
2020/12/05 00:16:03;;;;;;;36.15;15.58;;;;;;;12.86;62.75;154494.22;1771251;80;21322;-60
2020/12/05 00:18:36;;;;;;;42.98;17.07;;;;;;;12.82;62.77;154485.05;1783181;80;21413;-60
2020/12/05 00:21:08;;;;;;;47.40;18.52;;;;;;;12.89;63.11;154502.17;1784158;80;21160;-60
2020/12/05 00:23:40;;;;;;;44.85;17.90;;;;;;;12.87;62.85;154496.86;1783965;80;21183;-60
2020/12/05 00:26:17;;;;;;;43.35;17.50;;;;;;;12.88;62.35;154499.48;1783904;80;21177;-60
2020/12/05 00:28:50;;;;;;;43.90;17.98;;;;;;;12.80;62.62;154478.50;1766708;80;21342;-59
2020/12/05 00:31:22;;;;;;;43.02;17.52;;;;;;;12.79;62.73;154477.16;1783945;80;21195;-59
2020/12/05 00:33:54;;;;;;;42.90;16.82;;;;;;;12.80;62.43;154478.50;1784021;80;21801;-59
2020/12/05 00:36:27;;;;;;;47.30;18.70;;;;;;;12.78;62.54;154474.56;1743481;81;21197;-59
2020/12/05 00:39:00;;;;;;;45.80;17.65;;;;;;;12.78;62.93;154474.56;1738218;82;21248;-59
2020/12/05 00:41:32;;;;;;;39.90;17.52;;;;;;;12.76;63.26;154467.97;1738334;82;21208;-59
2020/12/05 00:44:04;;;;;;;41.45;18.37;;;;;;;12.85;63.20;154491.59;1739647;81;21926;-60
2020/12/05 00:46:38;;;;;;;40.48;17.30;;;;;;;12.83;62.94;154487.67;1770306;81;21177;-60
2020/12/05 00:49:10;;;;;;;46.92;17.87;;;;;;;12.82;63.08;154485.05;1770328;81;21193;-60
2020/12/05 00:51:42;;;;;;;41.70;18.12;;;;;;;12.76;63.26;154467.97;1770331;81;21323;-60
2020/12/05 00:54:15;;;;;;;46.68;17.75;;;;;;;12.72;62.76;154457.48;1761009;81;21260;-60
2020/12/05 00:56:49;;;;;;;49.18;18.48;;;;;;;12.71;63.55;154456.16;1738340;82;21662;-60
2020/12/05 00:59:21;;;;;;;41.95;18.42;;;;;;;12.72;63.16;154458.78;1743999;80;21228;-60
2020/12/05 01:01:56;;;;;;;38.92;17.12;;;;;;;12.76;63.53;154467.97;1770191;81;21173;-60
2020/12/05 01:04:28;;;;;;;42.48;19.05;;;;;;;12.82;63.84;154483.75;1770169;81;21167;-60
2020/12/05 01:07:01;;;;;;;42.30;18.60;;;;;;;12.90;63.79;154504.81;1770376;81;21197;-60
2020/12/05 01:09:35;;;;;;;42.10;17.23;;;;;;;12.93;63.18;154512.70;1769972;80;21173;-60
2020/12/05 01:12:08;;;;;;;45.03;17.98;;;;;;;13.10;62.50;154557.34;1770269;81;21767;-61
2020/12/05 01:14:40;;;;;;;45.05;18.55;;;;;;;13.00;62.54;154532.41;1765282;81;21208;-60
2020/12/05 01:17:13;;;;;;;41.75;16.75;;;;;;;13.21;63.05;154586.23;1770456;81;21311;-60
2020/12/05 01:19:45;;;;;;;43.90;18.92;;;;;;;13.24;62.48;154595.47;1769988;79;21247;-60
2020/12/05 01:22:20;;;;;;;48.75;18.92;;;;;;;13.23;62.44;154592.84;1770224;81;21225;-60
2020/12/05 01:24:52;;;;;;;42.98;17.90;;;;;;;13.22;62.20;154588.87;1770297;79;21188;-60
2020/12/05 01:27:25;;;;;;;42.95;17.12;;;;;;;13.26;62.57;154600.69;1770172;81;21326;-60
2020/12/05 01:29:58;;;;;;;52.20;19.25;;;;;;;13.24;62.18;154594.12;1770153;81;21157;-60
2020/12/05 01:32:30;;;;;;;48.55;18.35;;;;;;;13.21;62.42;154587.58;1764205;81;21252;-59
2020/12/05 01:35:02;;;;;;;48.87;20.12;;;;;;;13.53;62.20;154670.37;1770317;81;21157;-59
2020/12/05 01:37:35;;;;;;;47.05;19.65;;;;;;;13.06;62.56;154548.16;1742055;81;21193;-59
2020/12/05 01:40:07;;;;;;;45.30;17.10;;;;;;;12.91;62.73;154508.72;1769812;81;21196;-59
2020/12/05 01:42:39;;;;;;;45.60;18.35;;;;;;;12.84;62.48;154490.31;1770368;81;21330;-60
2020/12/05 01:45:12;;;;;;;50.80;19.75;;;;;;;12.79;62.64;154475.86;1770315;81;21447;-60
2020/12/05 01:47:44;;;;;;;45.23;18.32;;;;;;;12.82;62.91;154483.75;1770141;81;21343;-60
2020/12/05 01:50:17;;;;;;;42.23;16.62;;;;;;;12.77;63.39;154471.94;1769437;81;21299;-60
2020/12/05 01:52:50;;;;;;;45.78;17.92;;;;;;;12.85;63.71;154492.94;1769693;79;21848;-60
2020/12/05 01:55:23;;;;;;;50.12;18.42;;;;;;;12.96;63.79;154520.59;1770194;81;21315;-60
2020/12/05 01:57:55;;;;;;;45.52;18.60;;;;;;;13.04;63.60;154541.59;1770208;81;21315;-60
2020/12/05 02:00:27;;;;;;;45.73;18.23;;;;;;;13.01;63.08;154535.05;1759277;81;21182;-60
2020/12/05 02:03:00;;;;;;;46.98;18.70;;;;;;;13.06;63.18;154546.86;1769840;81;21398;-61
2020/12/05 02:06:13;;;;;;;48.85;19.30;;;;;;;12.99;62.90;154528.44;1768589;81;21181;-60
2020/12/05 02:09:08;;;;;;;45.65;20.25;;;;;;;12.96;62.33;154520.59;1770015;80;21201;-61
2020/12/05 02:11:46;;;;;;;49.15;20.20;;;;;;;13.31;61.32;154613.84;1739017;81;21311;-61
2020/12/05 02:14:18;;;;;;;44.48;17.90;;;;;;;13.43;61.01;154644.05;1739271;82;21717;-60
2020/12/05 02:16:52;;;;;;;46.55;19.50;;;;;;;13.44;61.46;154648.03;1739765;82;21385;-60
2020/12/05 02:19:25;;;;;;;50.15;21.40;;;;;;;13.52;61.44;154667.75;1764247;80;21205;-60
2020/12/05 02:21:58;;;;;;;50.12;19.95;;;;;;;13.28;62.09;154604.67;1768495;81;21291;-61
2020/12/05 02:24:31;;;;;;;51.55;21.40;;;;;;;13.45;62.55;154650.66;1745313;81;21808;-60
2020/12/05 02:27:06;;;;;;;50.58;20.10;;;;;;;13.47;61.97;154655.92;1768504;81;21208;-60
2020/12/05 02:29:38;;;;;;;48.20;19.32;;;;;;;13.51;61.19;154665.11;1747269;81;21213;-61
2020/12/05 02:32:12;;;;;;;47.80;20.37;;;;;;;13.58;61.40;154684.83;1736794;82;21197;-61
2020/12/05 02:34:44;;;;;;;55.12;21.12;;;;;;;13.64;61.38;154700.58;1736618;82;21197;-61
2020/12/05 02:37:19;;;;;;;49.77;19.55;;;;;;;13.67;61.30;154708.48;1736502;82;21224;-61
2020/12/05 02:39:52;;;;;;;41.83;18.10;;;;;;;13.57;60.14;154683.50;1736540;82;21177;-61
2020/12/05 02:42:24;;;;;;;35.33;14.45;;;;;;;13.39;59.87;154634.86;1736686;82;21324;-60
2020/12/05 02:44:57;;;;;;;42.27;18.25;;;;;;;13.27;59.45;154602.03;1743321;81;21188;-61
2020/12/05 02:47:30;;;;;;;44.65;18.27;;;;;;;13.32;59.64;154616.48;1768307;81;21176;-60
2020/12/05 02:50:03;;;;;;;39.73;15.18;;;;;;;13.00;59.96;154532.41;1766353;81;21232;-61
2020/12/05 02:52:35;;;;;;;42.40;17.30;;;;;;;12.90;60.11;154506.09;1759705;81;21813;-61
2020/12/05 02:55:08;;;;;;;41.13;16.82;;;;;;;13.24;59.57;154595.47;1744598;81;21230;-61
2020/12/05 02:57:40;;;;;;;45.75;17.95;;;;;;;12.97;59.83;154523.17;1738490;81;21206;-60
2020/12/05 03:00:13;;;;;;;41.25;17.77;;;;;;;13.01;59.88;154533.70;1738633;81;21811;-61
2020/12/05 03:02:45;;;;;;;37.38;16.75;;;;;;;12.93;59.73;154512.70;1738634;81;21229;-61
2020/12/05 03:05:20;;;;;;;42.73;18.98;;;;;;;12.71;60.12;154456.16;1744073;81;21171;-60
2020/12/05 03:07:53;;;;;;;40.08;18.05;;;;;;;12.75;60.01;154466.67;1744671;81;21801;-61
2020/12/05 03:10:26;;;;;;;38.92;16.48;;;;;;;12.75;60.15;154466.67;1738655;81;21235;-60
2020/12/05 03:12:59;;;;;;;39.60;18.37;;;;;;;12.93;59.99;154512.70;1748547;81;21194;-61
2020/12/05 03:15:31;;;;;;;42.00;16.57;;;;;;;13.01;59.88;154533.70;1738826;81;21222;-61
2020/12/05 03:18:04;;;;;;;43.15;17.42;;;;;;;13.04;60.14;154541.59;1738609;81;21266;-61
2020/12/05 03:20:36;;;;;;;40.83;16.80;;;;;;;13.12;60.00;154562.59;1739910;81;21396;-61
2020/12/05 03:23:08;;;;;;;38.80;16.87;;;;;;;12.47;60.84;154391.83;1747785;79;21188;-60
2020/12/05 03:25:41;;;;;;;39.53;17.65;;;;;;;12.50;60.77;154399.67;1714015;81;21359;-60
2020/12/05 03:28:13;;;;;;;37.65;16.85;;;;;;;12.50;60.85;154398.38;1745129;81;21365;-60
2020/12/05 03:30:47;;;;;;;36.88;16.37;;;;;;;12.65;60.56;154440.42;1767482;81;21243;-61
2020/12/05 03:33:21;;;;;;;37.45;16.45;;;;;;;12.93;59.91;154512.70;1771047;81;21365;-60
2020/12/05 03:35:54;;;;;;;40.43;17.82;;;;;;;12.78;60.15;154473.23;1778884;80;21175;-60
2020/12/05 03:38:26;;;;;;;42.95;17.75;;;;;;;12.93;59.88;154513.98;1780918;80;21674;-60
2020/12/05 03:40:58;;;;;;;37.35;16.00;;;;;;;12.53;60.57;154407.56;1759268;81;21172;-61
2020/12/05 03:43:31;;;;;;;36.68;17.10;;;;;;;12.50;60.83;154399.67;1747226;81;21186;-61
2020/12/05 03:46:03;;;;;;;42.58;18.48;;;;;;;13.04;59.84;154541.59;1773024;80;21300;-61
2020/12/05 03:48:35;;;;;;;43.73;18.23;;;;;;;13.24;59.42;154594.12;1774746;80;21163;-61
2020/12/05 03:51:08;;;;;;;40.20;16.75;;;;;;;13.60;58.82;154691.39;1750375;81;21303;-60
2020/12/05 03:53:41;;;;;;;37.98;16.42;;;;;;;13.44;58.73;154646.69;1769283;81;21329;-60
2020/12/05 03:56:13;;;;;;;40.20;17.23;;;;;;;13.47;58.82;154655.92;1770507;81;21706;-60
2020/12/05 03:58:45;;;;;;;41.33;17.02;;;;;;;13.31;58.80;154613.84;1749191;81;21188;-60
2020/12/05 04:01:18;;;;;;;43.30;19.10;;;;;;;13.28;59.05;154605.95;1746971;81;21153;-60
2020/12/05 04:03:51;;;;;;;49.03;18.60;;;;;;;13.24;59.14;154594.12;1738212;82;21197;-60
2020/12/05 04:06:23;;;;;;;40.52;18.32;;;;;;;13.35;58.98;154623.03;1738331;82;21323;-60
2020/12/05 04:08:55;;;;;;;48.00;18.65;;;;;;;13.39;58.85;154633.56;1749902;81;21212;-60
2020/12/05 04:11:28;;;;;;;46.23;19.45;;;;;;;13.07;59.37;154550.78;1770585;81;21217;-60
2020/12/05 04:14:00;;;;;;;48.15;19.77;;;;;;;13.01;59.64;154533.70;1770087;81;21236;-60
2020/12/05 04:16:32;;;;;;;42.48;18.62;;;;;;;13.12;59.60;154562.59;1770286;81;21337;-60
2020/12/05 04:19:05;;;;;;;46.95;19.55;;;;;;;13.11;59.59;154559.97;1770089;81;21233;-60
2020/12/05 04:21:37;;;;;;;47.90;19.07;;;;;;;13.11;59.65;154559.97;1768025;80;21308;-60
2020/12/05 04:24:10;;;;;;;43.10;19.67;;;;;;;13.17;59.70;154575.75;1770701;81;21312;-60
2020/12/05 04:26:42;;;;;;;50.00;19.70;;;;;;;13.07;59.62;154550.78;1770835;81;21775;-60
2020/12/05 04:29:14;;;;;;;49.25;19.30;;;;;;;12.98;59.97;154525.81;1770448;81;21307;-60
2020/12/05 04:31:48;;;;;;;49.77;19.75;;;;;;;13.30;59.59;154611.22;1770535;81;21327;-60
2020/12/05 04:34:20;;;;;;;55.60;20.57;;;;;;;13.16;59.89;154574.42;1770452;81;21196;-60
2020/12/05 04:36:53;;;;;;;53.13;22.13;;;;;;;13.08;59.90;154552.08;1744934;81;21343;-60
2020/12/05 04:39:25;;;;;;;51.10;21.73;;;;;;;13.06;60.17;154548.16;1762149;81;21185;-60
2020/12/05 04:41:58;;;;;;;53.45;21.73;;;;;;;13.12;59.86;154562.59;1740119;81;21181;-61
2020/12/05 04:44:30;;;;;;;50.10;22.13;;;;;;;13.24;59.76;154594.12;1770365;81;21323;-60
2020/12/05 04:47:03;;;;;;;40.25;17.35;;;;;;;13.15;59.71;154571.78;1770823;81;21324;-60
2020/12/05 04:49:36;;;;;;;46.30;21.30;;;;;;;13.17;59.89;154575.75;1770469;81;21656;-60
2020/12/05 04:52:24;;;;;;;40.12;16.73;;;;;;;13.24;59.91;154595.47;1770437;81;21320;-60
2020/12/05 04:54:57;;;;;;;48.60;18.70;;;;;;;13.27;59.82;154602.03;1758760;81;21179;-60
2020/12/05 04:57:29;;;;;;;46.23;19.80;;;;;;;13.26;59.44;154600.69;1770387;81;21161;-59
2020/12/05 05:00:01;;;;;;;46.73;20.20;;;;;;;13.30;59.37;154609.94;1742594;81;21661;-60
2020/12/05 05:02:33;;;;;;;42.30;17.27;;;;;;;13.21;59.46;154587.58;1753378;81;21308;-60
2020/12/05 05:05:07;;;;;;;43.48;18.55;;;;;;;12.80;60.00;154478.50;1770598;81;21304;-60
2020/12/05 05:07:56;;;;;;;38.65;17.25;;;;;;;12.68;60.43;154448.25;1783823;80;21329;-60
2020/12/05 05:10:31;;;;;;;50.23;20.25;;;;;;;12.53;60.76;154406.27;1770300;81;21180;-60
2020/12/05 05:13:20;;;;;;;40.75;17.67;;;;;;;12.29;61.21;154343.25;1784230;80;21333;-63
2020/12/05 05:15:48;;;;;;;46.50;19.17;;;;;;;12.17;61.71;154313.03;1784956;80;21430;-61
2020/12/05 05:18:24;;;;;;;42.70;17.75;;;;;;;12.44;61.39;154382.64;1783326;80;21251;-61
2020/12/05 05:20:56;;;;;;;42.13;17.65;;;;;;;12.53;61.71;154407.56;1733948;80;21176;-60
2020/12/05 05:23:29;;;;;;;45.98;17.95;;;;;;;12.64;61.69;154437.78;1775576;79;21260;-60
2020/12/05 05:26:05;;;;;;;41.85;16.85;;;;;;;12.57;61.93;154418.08;1745883;81;21676;-60
2020/12/05 05:28:39;;;;;;;40.85;17.23;;;;;;;12.71;62.29;154456.16;1770913;81;21217;-60
2020/12/05 05:33:53;;;;;;;44.75;17.07;;;;;;;13.06;61.84;154548.16;1739744;82;21192;-60
2020/12/05 05:36:30;;;;;;;44.73;18.23;;;;;;;13.09;61.76;154554.70;1743674;81;21343;-60
2020/12/05 05:39:09;;;;;;;45.45;17.42;;;;;;;13.07;61.52;154549.50;1766083;81;21374;-60
2020/12/05 05:41:43;;;;;;;43.08;16.52;;;;;;;13.08;62.24;154552.08;1765788;81;21896;-60
2020/12/05 05:44:21;;;;;;;41.95;17.27;;;;;;;13.07;62.02;154549.50;1710079;84;21349;-60
2020/12/05 05:46:53;;;;;;;40.45;16.45;;;;;;;13.00;61.69;154532.41;1739259;82;21321;-60
2020/12/05 05:49:33;;;;;;;43.30;18.32;;;;;;;12.97;61.53;154524.52;1739480;82;21232;-61
2020/12/05 05:52:07;;;;;;;42.65;16.77;;;;;;;12.93;61.85;154513.98;1738425;82;21188;-61
2020/12/05 05:54:42;;;;;;;38.42;16.37;;;;;;;12.85;61.44;154492.94;1735411;82;21304;-61
2020/12/05 05:57:15;;;;;;;42.78;17.87;;;;;;;12.75;61.69;154465.34;1754939;81;21313;-60
2020/12/05 05:59:48;;;;;;;42.05;18.05;;;;;;;12.63;61.92;154433.81;1754894;81;21353;-61
2020/12/05 06:02:20;;;;;;;41.45;17.23;;;;;;;12.71;62.09;154454.86;1702475;84;21318;-60
2020/12/05 06:04:53;;;;;;;52.85;18.82;;;;;;;12.64;62.29;154436.44;1686566;84;21296;-60
2020/12/05 06:07:26;;;;;;;48.40;18.62;;;;;;;12.62;62.14;154432.53;1698881;84;21186;-61
2020/12/05 06:09:58;;;;;;;42.58;17.67;;;;;;;12.65;61.95;154440.42;1707540;83;21262;-60
2020/12/05 06:12:35;;;;;;;46.75;18.35;;;;;;;12.69;62.10;154449.59;1739789;82;21251;-60
2020/12/05 06:15:11;;;;;;;43.28;18.27;;;;;;;12.78;62.13;154474.56;1740707;81;21196;-60
2020/12/05 06:17:43;;;;;;;37.65;16.67;;;;;;;12.68;61.86;154446.97;1713568;82;21342;-60
2020/12/05 06:20:16;;;;;;;47.70;18.42;;;;;;;12.68;61.93;154448.25;1733646;81;21219;-60
2020/12/05 06:22:57;;;;;;;44.20;18.95;;;;;;;12.56;62.46;154414.16;1723449;82;21316;-60
2020/12/05 06:25:29;;;;;;;48.85;19.05;;;;;;;12.76;62.66;154467.97;1770720;80;21337;-60
2020/12/05 06:28:07;;;;;;;41.80;16.60;;;;;;;12.88;63.14;154499.48;1766205;81;21365;-61
2020/12/05 06:30:42;;;;;;;47.23;19.25;;;;;;;12.78;63.10;154474.56;1763024;81;21254;-60
2020/12/05 06:33:44;;;;;;;47.83;18.92;;;;;;;12.73;63.78;154460.13;1725101;81;21315;-60
2020/12/05 06:36:33;;;;;;;46.18;18.57;;;;;;;12.71;64.24;154456.16;1767533;81;21351;-60
2020/12/05 06:39:09;;;;;;;47.33;17.02;;;;;;;12.62;63.67;154432.53;1770723;80;21171;-60
2020/12/05 06:41:44;;;;;;;42.30;16.32;;;;;;;12.50;63.38;154398.38;1760947;81;21482;-59
2020/12/05 06:44:38;;;;;;;44.48;16.75;;;;;;;12.42;63.40;154377.38;1778615;80;21381;-60
2020/12/05 06:47:12;;;;;;;52.25;18.80;;;;;;;12.33;64.00;154355.05;1760967;81;21239;-60
2020/12/05 06:49:46;;;;;;;51.20;20.23;;;;;;;12.40;63.98;154373.41;1740975;81;21191;-61
2020/12/05 06:52:26;;;;;;;44.75;18.35;;;;;;;12.45;63.88;154386.56;1768219;81;21672;-60
2020/12/05 06:55:10;;;;;;;46.40;17.75;;;;;;;12.23;65.23;154327.47;1758861;81;21324;-60
2020/12/05 06:57:45;;;;;;;47.50;19.87;;;;;;;12.32;64.32;154352.42;1767515;81;21827;-61
2020/12/05 07:00:26;;;;;;;48.68;20.40;;;;;;;12.33;64.03;154355.05;1760253;81;21326;-60
2020/12/05 07:03:14;;;;;;;62.62;20.37;;;;;;;12.44;63.76;154383.94;1761601;81;21187;-61
2020/12/05 07:05:45;;;;;;;47.85;18.80;;;;;;;12.53;63.33;154407.56;1764982;81;21259;-60
2020/12/05 07:08:38;;;;;;;45.83;18.82;;;;;;;12.56;62.97;154415.44;1756836;81;21426;-61
2020/12/05 07:11:18;;;;;;;63.52;26.23;;;;;;;12.59;62.62;154424.63;1754895;81;21281;-61
2020/12/05 07:13:53;;;;;;;61.88;26.62;;;;;;;12.62;63.03;154432.53;1773878;80;21935;-61
2020/12/05 07:16:29;;;;;;;48.25;20.75;;;;;;;12.41;62.73;154374.75;1770195;81;21164;-61
2020/12/05 07:19:02;;;;;;;55.43;22.90;;;;;;;12.61;62.26;154428.59;1762046;80;21142;-60
2020/12/05 07:21:35;;;;;;;63.30;29.52;;;;;;;12.64;62.18;154436.44;1765054;81;21147;-61
2020/12/05 07:24:07;;;;;;;54.05;27.48;;;;;;;12.42;62.03;154378.67;1766127;80;21844;-61
2020/12/05 07:26:40;;;;;;;54.83;25.55;;;;;;;12.27;62.67;154339.28;1758215;80;21369;-61
2020/12/05 07:29:13;;;;;;;49.35;24.05;;;;;;;12.23;62.73;154328.81;1715195;82;21307;-61
2020/12/05 07:31:45;;;;;;;57.25;23.22;;;;;;;12.19;62.96;154317.00;1727710;83;21310;-62
2020/12/05 07:34:21;;;;;;;42.27;19.05;;;;;;;12.29;62.88;154343.25;1749881;81;21198;-61
2020/12/05 07:36:53;;;;;;;37.48;18.57;;;;;;;12.14;63.02;154303.84;1768725;81;21362;-61
2020/12/05 07:39:26;;;;;;;40.17;18.57;;;;;;;12.37;62.78;154365.58;1744388;81;21219;-60
2020/12/05 07:41:58;;;;;;;39.98;18.75;;;;;;;12.25;62.81;154334.06;1714345;82;21687;-60
2020/12/05 07:44:30;;;;;;;45.30;18.05;;;;;;;12.23;62.91;154328.81;1773216;81;21542;-62
2020/12/05 07:47:03;;;;;;;52.40;21.15;;;;;;;12.16;63.11;154310.39;1738560;81;21248;-61
2020/12/05 07:49:36;;;;;;;52.08;19.37;;;;;;;12.15;62.95;154307.77;1738632;81;21317;-61
2020/12/05 07:52:08;;;;;;;43.33;19.95;;;;;;;12.43;63.25;154381.31;1777660;81;21338;-63
2020/12/05 07:54:57;;;;;;;39.67;17.55;;;;;;;12.16;62.98;154310.39;1767725;80;21330;-63
2020/12/05 07:57:31;;;;;;;37.88;16.23;;;;;;;12.15;63.17;154307.77;1754624;80;21249;-62
2020/12/05 08:00:11;;;;;;;42.78;19.50;;;;;;;12.02;62.93;154273.69;1752408;80;21234;-64
2020/12/05 08:03:09;;;;;;;46.67;19.67;;;;;;;12.25;62.68;154334.06;1752851;80;21385;-63
2020/12/05 08:06:00;;;;;;;46.75;19.52;;;;;;;11.92;63.20;154247.39;1750753;81;21187;-61
2020/12/05 08:08:33;;;;;;;36.28;17.77;;;;;;;11.97;63.43;154260.53;1748385;80;21330;-59
2020/12/05 08:11:05;;;;;;;47.62;18.15;;;;;;;11.94;63.32;154252.66;1733412;81;21329;-62
2020/12/05 08:13:38;;;;;;;39.63;17.70;;;;;;;12.44;62.24;154383.94;1760100;79;21885;-62
2020/12/05 08:16:10;;;;;;;42.58;18.42;;;;;;;12.33;62.66;154353.72;1761386;80;21860;-66
2020/12/05 08:18:44;;;;;;;42.62;19.48;;;;;;;12.19;62.91;154318.28;1760685;80;21382;-63
2020/12/05 08:21:16;;;;;;;39.78;17.75;;;;;;;12.27;63.01;154339.28;1757337;80;21172;-62
2020/12/05 08:23:48;;;;;;;40.83;17.62;;;;;;;12.19;62.87;154318.28;1688777;81;21231;-64
2020/12/05 08:26:21;;;;;;;43.55;19.57;;;;;;;12.49;62.54;154395.75;1751643;79;21218;-63
2020/12/05 08:28:53;;;;;;;39.40;18.07;;;;;;;12.54;62.39;154410.19;1754790;80;21222;-61
2020/12/05 08:31:26;;;;;;;47.95;19.50;;;;;;;12.59;62.14;154424.63;1742053;80;21242;-61
2020/12/05 08:33:58;;;;;;;43.25;18.50;;;;;;;12.65;62.10;154439.08;1761149;79;21380;-66
2020/12/05 08:36:35;;;;;;;50.67;19.87;;;;;;;12.67;62.08;154444.34;1758568;80;21269;-67
2020/12/05 08:39:15;;;;;;;42.35;18.27;;;;;;;12.76;62.38;154467.97;1754508;79;21376;-66
2020/12/05 08:41:58;;;;;;;39.27;18.60;;;;;;;12.78;61.67;154474.56;1758923;80;22178;-69
2020/12/05 08:44:29;;;;;;;40.33;18.52;;;;;;;12.40;61.71;154373.41;1760288;80;21396;-68
2020/12/05 08:47:13;;;;;;;46.23;19.87;;;;;;;12.67;61.76;154445.63;1742626;80;21298;-70
2020/12/05 08:49:43;;;;;;;40.70;18.27;;;;;;;12.69;61.70;154450.89;1757655;80;21405;-65
2020/12/05 08:52:16;;;;;;;42.35;17.75;;;;;;;12.72;61.65;154458.78;1759344;79;21227;-66
2020/12/05 08:54:53;;;;;;;48.78;21.15;;;;;;;12.65;61.62;154440.42;1742754;80;21316;-66
2020/12/05 08:57:26;;;;;;;45.55;20.70;;;;;;;12.74;61.52;154464.05;1754565;80;21936;-65
2020/12/05 09:00:02;;;;;;;47.88;19.60;;;;;;;12.76;61.59;154467.97;1762009;80;21800;-62
2020/12/05 09:02:39;;;;;;;51.45;19.50;;;;;;;12.79;61.43;154475.86;1745006;80;21249;-67
2020/12/05 09:05:13;;;;;;;44.23;19.23;;;;;;;12.76;61.23;154467.97;1754716;80;21736;-67
2020/12/05 09:08:01;;;;;;;53.13;20.05;;;;;;;12.72;61.34;154458.78;1741331;80;21790;-62
2020/12/05 09:10:37;;;;;;;52.17;19.82;;;;;;;12.80;61.44;154478.50;1743609;80;21214;-63
2020/12/05 09:13:10;;;;;;;52.78;21.30;;;;;;;12.84;61.29;154489.02;1745793;81;21236;-66
2020/12/05 09:16:03;;;;;;;52.90;21.23;;;;;;;12.91;61.43;154507.44;1748619;81;21184;-66
2020/12/05 09:18:48;;;;;;;55.20;22.00;;;;;;;12.88;61.04;154499.48;1741549;81;21790;-67
2020/12/05 09:21:22;;;;;;;58.48;22.17;;;;;;;12.87;61.06;154496.86;1742492;80;21734;-63
2020/12/05 09:24:01;;;;;;;53.87;22.15;;;;;;;12.88;61.12;154500.83;1742122;81;21243;-62
2020/12/05 09:26:34;;;;;;;50.03;20.27;;;;;;;12.96;61.25;154520.59;1742948;81;21681;-60
2020/12/05 09:29:07;;;;;;;52.83;20.37;;;;;;;13.08;60.99;154552.08;1741915;80;21203;-59
2020/12/05 09:31:49;;;;;;;58.10;21.57;;;;;;;13.03;60.87;154538.97;1740481;80;21163;-58
2020/12/05 09:34:36;;;;;;;47.40;19.37;;;;;;;13.02;60.80;154537.63;1735848;81;21282;-61
2020/12/05 09:37:13;;;;;;;53.35;20.05;;;;;;;13.06;60.91;154548.16;1741590;80;21290;-61
2020/12/05 09:39:46;;;;;;;52.03;20.77;;;;;;;13.02;60.53;154537.63;1738788;81;21226;-65
2020/12/05 09:42:25;;;;;;;52.20;20.27;;;;;;;12.97;60.43;154523.17;1738855;80;21865;-61
2020/12/05 09:44:59;;;;;;;48.80;20.35;;;;;;;12.88;60.98;154500.83;1739837;81;21188;-63
2020/12/05 09:47:32;;;;;;;52.23;21.30;;;;;;;12.75;60.74;154466.67;1736723;81;21254;-63
2020/12/05 09:50:05;;;;;;;52.58;20.30;;;;;;;12.86;60.62;154495.56;1736750;81;21777;-65
2020/12/05 09:52:38;;;;;;;60.20;21.60;;;;;;;12.87;60.96;154496.86;1735788;81;21202;-63
2020/12/05 09:55:11;;;;;;;56.77;21.87;;;;;;;12.87;60.63;154498.20;1733359;81;21235;-66
2020/12/05 09:57:45;;;;;;;63.83;23.65;;;;;;;12.80;60.63;154479.78;1746746;80;21241;-60
2020/12/05 10:00:17;;;;;;;51.10;18.85;;;;;;;12.75;60.69;154465.34;1763301;80;21241;-64
2020/12/05 10:02:50;;;;;;;45.70;18.87;;;;;;;12.69;60.71;154449.59;1771630;79;21198;-62
2020/12/05 10:05:23;;;;;;;52.40;19.67;;;;;;;12.69;60.40;154449.59;1766430;79;21905;-63
2020/12/05 10:07:57;;;;;;;48.02;19.23;;;;;;;12.83;60.26;154486.39;1742383;80;21186;-64
2020/12/05 10:10:30;;;;;;;48.63;21.37;;;;;;;12.69;60.29;154450.89;1739443;80;21880;-65
2020/12/05 10:13:04;;;;;;;41.23;18.25;;;;;;;12.78;60.34;154474.56;1735112;81;21266;-69
2020/12/05 10:15:38;;;;;;;46.00;19.52;;;;;;;12.79;63.86;154475.86;1737964;80;21207;-65
2020/12/05 10:18:12;;;;;;;55.85;22.00;;;;;;;12.97;61.23;154524.52;1733355;80;21232;-66
2020/12/05 10:20:46;;;;;;;49.08;20.35;;;;;;;12.90;60.37;154504.81;1737971;81;21218;-68
2020/12/05 10:23:21;;;;;;;43.75;19.75;;;;;;;12.86;59.81;154495.56;1738737;81;21272;-65
2020/12/05 10:25:55;;;;;;;47.65;18.85;;;;;;;12.83;60.13;154486.39;1738921;81;21257;-71
2020/12/05 10:28:28;;;;;;;42.85;20.77;;;;;;;13.01;60.11;154535.05;1735770;80;21337;-71
2020/12/05 10:31:01;;;;;;;41.83;18.80;;;;;;;13.07;59.71;154550.78;1755110;80;21217;-66
2020/12/05 10:33:33;;;;;;;42.85;20.30;;;;;;;13.06;59.43;154548.16;1755687;81;21243;-66
2020/12/05 10:36:07;;;;;;;40.92;19.10;;;;;;;12.88;59.60;154499.48;1754637;80;21185;-70
2020/12/05 10:38:40;;;;;;;40.52;18.45;;;;;;;12.93;59.50;154512.70;1753589;81;21269;-70
2020/12/05 10:41:14;;;;;;;39.27;18.62;;;;;;;12.77;59.84;154470.59;1747141;81;21228;-66
2020/12/05 10:43:47;;;;;;;50.35;20.32;;;;;;;12.74;59.67;154462.70;1749249;79;21157;-68
2020/12/05 10:46:21;;;;;;;43.85;18.35;;;;;;;12.54;60.02;154410.19;1740539;81;21286;-68
2020/12/05 10:48:55;;;;;;;40.40;17.92;;;;;;;12.53;60.12;154407.56;1747917;81;21189;-65
2020/12/05 10:51:28;;;;;;;40.88;18.12;;;;;;;12.50;60.14;154398.38;1755074;79;21227;-66
2020/12/05 10:54:01;;;;;;;37.17;17.02;;;;;;;12.51;60.06;154402.30;1745665;80;21256;-70
2020/12/05 10:56:37;;;;;;;36.55;17.15;;;;;;;12.48;59.93;154393.11;1747135;80;21268;-68
2020/12/05 10:59:11;;;;;;;47.48;18.65;;;;;;;12.48;60.16;154393.11;1745659;79;21181;-68
2020/12/05 11:01:46;;;;;;;41.18;17.95;;;;;;;12.50;60.19;154398.38;1746937;80;21340;-65
2020/12/05 11:04:19;;;;;;;46.63;19.37;;;;;;;12.55;60.02;154411.53;1719709;81;21268;-65
2020/12/05 11:06:52;;;;;;;41.98;18.67;;;;;;;12.55;59.86;154412.81;1746211;81;21267;-64
2020/12/05 11:09:26;;;;;;;42.73;19.82;;;;;;;12.52;60.05;154403.64;1751201;81;21260;-68
2020/12/05 11:11:59;;;;;;;39.03;17.27;;;;;;;12.63;59.97;154433.81;1748042;81;21749;-68
2020/12/05 11:14:31;;;;;;;42.08;17.52;;;;;;;12.69;59.71;154449.59;1754758;80;21220;-67
2020/12/05 11:17:06;;;;;;;39.13;18.15;;;;;;;12.63;59.83;154433.81;1751766;81;21305;-66
2020/12/05 11:19:39;;;;;;;35.63;17.32;;;;;;;12.62;59.81;154431.19;1748711;81;21292;-68
2020/12/05 11:22:14;;;;;;;49.33;20.77;;;;;;;12.67;59.75;154445.63;1752858;81;21228;-66
2020/12/05 11:24:47;;;;;;;69.82;30.50;;;;;;;12.91;59.80;154508.72;1745266;80;21236;-63
2020/12/05 11:27:20;;;;;;;45.88;20.00;;;;;;;12.92;58.94;154510.06;1743889;81;21213;-64
2020/12/05 11:29:53;;;;;;;39.40;18.23;;;;;;;13.07;58.78;154549.50;1754969;80;21280;-69
2020/12/05 11:32:26;;;;;;;33.40;16.48;;;;;;;13.02;58.84;154537.63;1751050;81;21688;-67
2020/12/05 11:35:00;;;;;;;37.15;17.05;;;;;;;13.02;58.54;154536.34;1744024;80;21819;-64
2020/12/05 11:37:32;;;;;;;41.00;18.57;;;;;;;12.98;58.48;154527.16;1748199;80;21220;-68
2020/12/05 11:40:06;;;;;;;44.18;17.73;;;;;;;12.97;58.39;154524.52;1753438;80;21287;-65
2020/12/05 11:42:38;;;;;;;37.67;17.57;;;;;;;12.82;58.41;154483.75;1754509;80;21153;-67
2020/12/05 11:45:11;;;;;;;36.03;15.75;;;;;;;12.81;58.41;154481.13;1744564;81;21319;-65
2020/12/05 11:47:46;;;;;;;43.48;21.68;;;;;;;12.75;58.35;154466.67;1752482;80;21751;-65
2020/12/05 11:50:19;;;;;;;41.15;18.20;;;;;;;12.77;58.13;154471.94;1745654;80;21370;-68